Time;durP1;ratioP1;P1;durP2;ratioP2;P2;SDS_P1;SDS_P2;PMS_P1;PMS_P2;Temp;Humidity;BMP_temperature;BMP_pressure;BME280_temperature;BME280_humidity;BME280_pressure;Samples;Min_cycle;Max_cycle;Signal;HPM_P1;HPM_P2
2023/10/09 00:01:31;;;;;;;;;;;;;;;;;;;;;
2023/10/09 00:04:02;;;;;;;11.53;8.20;;;12.60;99.90;;;12.18;100.00;98526.34;4999946;28;20635;-79
2023/10/09 00:06:39;;;;;;;13.83;8.10;;;12.60;99.90;;;12.23;100.00;98517.59;5025614;28;20448;-80
2023/10/09 00:09:47;;;;;;;14.27;8.80;;;12.60;99.90;;;12.19;100.00;98522.59;5037312;28;20462;-80
2023/10/09 00:13:31;;;;;;;;;;;;;;;;;;;;;
2023/10/09 00:16:14;;;;;;;11.03;8.00;;;12.60;99.90;;;12.27;100.00;98520.72;4951942;28;20597;-81
2023/10/09 00:22:41;;;;;;;10.90;8.50;;;12.60;99.90;;;12.34;100.00;98507.97;5055178;28;20463;-78
2023/10/09 00:28:18;;;;;;;11.97;7.70;;;12.70;99.90;;;11.97;100.00;98432.66;5045602;28;20450;-82
2023/10/09 00:34:07;;;;;;;13.43;9.10;;;12.70;99.90;;;12.45;100.00;98493.75;5051486;28;20868;-80
2023/10/09 00:36:50;;;;;;;12.30;9.40;;;12.70;99.90;;;12.40;100.00;98490.84;5048342;28;20957;-80
2023/10/09 00:42:43;;;;;;;11.20;8.30;;;12.80;99.90;;;12.38;100.00;98465.00;4997974;28;20473;-80
2023/10/09 00:48:37;;;;;;;11.87;8.40;;;12.90;99.90;;;12.59;100.00;98461.16;4989991;28;20523;-78
2023/10/09 00:52:22;;;;;;;8.67;7.80;;;13.00;99.90;;;12.58;100.00;98464.91;5005827;28;20539;-77
2023/10/09 00:58:30;;;;;;;13.20;8.90;;;13.00;99.90;;;12.63;100.00;98446.09;4891320;28;20486;-77
2023/10/09 01:00:59;;;;;;;8.80;7.90;;;13.00;99.90;;;12.54;100.00;98444.72;4950113;28;20463;-79
2023/10/09 01:04:26;;;;;;;10.90;7.87;;;13.00;99.90;;;12.58;100.00;98437.81;4963451;28;20455;-81
2023/10/09 01:10:19;;;;;;;11.40;8.97;;;12.90;99.90;;;11.86;100.00;98316.94;5038107;28;20452;-78
2023/10/09 01:13:09;;;;;;;10.80;7.90;;;12.90;99.90;;;12.71;100.00;98437.72;4937698;28;20973;-79
2023/10/09 01:31:38;;;;;;;9.67;8.63;;;12.80;99.90;;;12.56;100.00;98418.22;4779068;29;20517;-79
2023/10/09 01:34:15;;;;;;;11.60;7.23;;;12.80;99.90;;;12.58;100.00;98422.34;4835994;29;20924;-79
2023/10/09 01:40:24;;;;;;;11.60;8.10;;;12.90;99.90;;;12.54;100.00;98382.38;4807758;29;21055;-81
2023/10/09 01:43:38;;;;;;;13.13;8.67;;;12.90;99.90;;;12.63;100.00;98397.31;4861215;28;21033;-78
2023/10/09 01:46:27;;;;;;;10.87;8.30;;;12.90;99.90;;;12.72;100.00;98401.44;4915091;28;20487;-83
2023/10/09 01:48:54;;;;;;;14.37;9.17;;;13.00;99.90;;;12.59;100.00;98366.28;4941957;28;20462;-83
2023/10/09 01:51:40;;;;;;;10.00;8.10;;;13.00;99.90;;;12.62;100.00;98363.13;4946088;28;20443;-79
2023/10/09 01:54:16;;;;;;;11.00;8.50;;;13.10;99.90;;;12.33;100.00;98322.06;4934266;28;21277;-80
2023/10/09 01:56:49;;;;;;;12.00;9.10;;;13.10;99.90;;;12.70;100.00;98381.84;4970816;28;20466;-80
2023/10/09 01:59:53;;;;;;;9.83;7.93;;;13.10;99.90;;;12.73;100.00;98378.69;5003166;28;20565;-80
2023/10/09 02:02:36;;;;;;;10.67;8.30;;;13.10;99.90;;;12.87;100.00;98386.72;4991314;28;20478;-79
2023/10/09 02:05:24;;;;;;;12.90;8.93;;;13.20;99.90;;;12.62;100.00;98376.69;5001583;28;20973;-80
2023/10/09 02:07:58;;;;;;;10.23;8.23;;;13.10;99.80;;;12.70;100.00;98376.44;4951706;28;20458;-80
2023/10/09 02:14:20;;;;;;;11.60;9.23;;;13.20;99.80;;;12.68;100.00;98383.94;5006426;28;20543;-77
2023/10/09 02:17:07;;;;;;;13.80;9.10;;;13.20;99.50;;;12.73;100.00;98375.97;5006795;28;20460;-79
2023/10/09 02:19:52;;;;;;;11.67;9.47;;;13.10;99.70;;;12.65;100.00;98378.94;4994098;28;20574;-76
2023/10/09 02:22:34;;;;;;;12.40;8.40;;;13.10;99.40;;;12.66;100.00;98375.22;5046057;28;20459;-78
2023/10/09 02:25:11;;;;;;;11.27;8.40;;;13.10;99.70;;;12.73;100.00;98375.97;5050592;28;20473;-79
2023/10/09 02:27:53;;;;;;;12.13;8.50;;;13.10;99.90;;;12.70;100.00;98371.00;5039315;28;20515;-81
2023/10/09 02:30:42;;;;;;;14.00;8.70;;;13.20;99.60;;;12.15;100.00;98280.31;5036892;28;20452;-77
2023/10/09 02:33:27;;;;;;;14.77;9.63;;;13.20;99.10;;;12.77;100.00;98364.69;5045056;28;20467;-78
2023/10/09 02:35:59;;;;;;;13.07;8.83;;;13.20;99.50;;;12.67;100.00;98360.59;5047280;28;20625;-79
2023/10/09 02:38:26;;;;;;;11.40;8.97;;;13.20;99.30;;;12.75;100.00;98363.03;5048773;28;20538;-76
2023/10/09 02:43:55;;;;;;;11.73;9.37;;;13.20;99.20;;;12.77;100.00;98361.97;5043364;28;20467;-77
2023/10/09 02:46:39;;;;;;;14.83;8.90;;;13.10;99.20;;;12.89;100.00;98352.06;4994840;28;20864;-78
2023/10/09 02:50:06;;;;;;;12.93;9.33;;;13.10;99.90;;;12.60;100.00;98302.91;5036755;28;21001;-78
2023/10/09 02:56:02;;;;;;;12.20;8.50;;;13.20;99.20;;;12.85;100.00;98348.16;4948652;28;20473;-78
2023/10/09 02:58:51;;;;;;;12.03;7.67;;;13.20;99.60;;;12.55;100.00;98290.00;4960657;28;20470;-78
2023/10/09 03:01:25;;;;;;;11.20;9.97;;;13.20;99.30;;;12.88;100.00;98355.84;4956658;28;20965;-80
2023/10/09 03:06:50;;;;;;;8.63;7.73;;;13.20;99.00;;;12.85;100.00;98346.25;4937668;28;20464;-78
2023/10/09 03:09:50;;;;;;;14.60;8.83;;;13.20;99.40;;;12.88;100.00;98355.84;4985186;28;20465;-79
2023/10/09 03:12:27;;;;;;;10.30;8.13;;;13.10;99.70;;;12.75;100.00;98345.94;4997301;28;20574;-80
2023/10/09 03:14:58;;;;;;;10.57;7.93;;;13.10;99.20;;;12.73;100.00;98348.88;5002511;28;20492;-79
2023/10/09 03:18:14;;;;;;;12.90;8.83;;;13.10;99.90;;;12.86;100.00;98357.94;5003274;28;20974;-80
2023/10/09 03:20:44;;;;;;;10.37;8.87;;;13.10;99.70;;;12.87;100.00;98348.75;4884784;29;20486;-81
2023/10/09 03:23:18;;;;;;;13.20;9.20;;;13.20;99.30;;;12.28;100.00;98249.59;4980824;28;20539;-80
2023/10/09 03:25:54;;;;;;;11.67;8.13;;;13.20;98.80;;;12.67;100.00;98344.34;5014902;28;20476;-76
2023/10/09 03:31:56;;;;;;;12.90;8.50;;;13.10;99.10;;;12.63;100.00;98343.09;4991610;28;20465;-79
2023/10/09 03:34:32;;;;;;;11.23;8.40;;;13.00;99.90;;;12.50;100.00;98338.63;4965462;28;20544;-79
2023/10/09 03:40:22;;;;;;;10.50;9.10;;;13.00;99.90;;;12.53;100.00;98338.19;5046238;28;20463;-78
2023/10/09 03:43:01;;;;;;;10.30;9.23;;;12.90;99.90;;;12.52;100.00;98336.53;5048263;28;20455;-78
2023/10/09 03:46:04;;;;;;;12.87;8.63;;;12.90;99.90;;;12.46;100.00;98332.81;5045545;28;20873;-77
2023/10/09 03:48:36;;;;;;;11.10;9.10;;;12.90;99.90;;;12.47;100.00;98329.03;5044749;28;20811;-79
2023/10/09 03:51:21;;;;;;;15.53;8.80;;;12.80;99.90;;;12.43;100.00;98316.16;5039305;28;20483;-79
2023/10/09 03:53:57;;;;;;;10.53;9.20;;;12.80;99.90;;;12.35;100.00;98317.25;5042781;28;21088;-76
2023/10/09 03:59:21;;;;;;;9.50;8.50;;;12.60;99.90;;;12.18;100.00;98319.69;5043080;28;20463;-80
2023/10/09 04:01:57;;;;;;;11.93;8.43;;;12.60;99.90;;;12.18;100.00;98325.91;5042793;28;20450;-78
2023/10/09 04:13:34;;;;;;;11.27;9.43;;;12.40;99.90;;;11.84;100.00;98325.25;5071787;28;20462;-79
2023/10/09 04:23:05;;;;;;;12.23;8.20;;;12.10;99.90;;;11.81;100.00;98322.97;4890581;29;20442;-79
2023/10/09 04:28:22;;;;;;;12.50;9.07;;;12.10;99.90;;;11.70;100.00;98318.25;4994424;28;20451;-78
2023/10/09 04:31:14;;;;;;;16.10;9.27;;;12.00;99.90;;;11.73;100.00;98323.22;4993582;28;20454;-78
2023/10/09 04:33:54;;;;;;;13.63;9.13;;;12.00;99.90;;;11.60;100.00;98297.06;4979163;28;20467;-78
2023/10/09 04:36:45;;;;;;;13.03;9.80;;;12.00;99.90;;;11.60;100.00;98314.13;4975046;28;20869;-79
2023/10/09 04:42:46;;;;;;;13.73;9.37;;;11.90;99.90;;;11.47;100.00;98303.38;4979423;28;20727;-78
2023/10/09 04:48:32;;;;;;;15.20;9.23;;;11.70;99.90;;;11.43;100.00;98300.25;4994553;28;21319;-79
2023/10/09 04:51:22;;;;;;;13.23;9.90;;;11.80;99.90;;;11.43;100.00;98296.69;5045109;28;20595;-78
2023/10/09 04:57:21;;;;;;;12.33;10.53;;;11.70;99.90;;;11.31;100.00;98294.69;4954663;28;20462;-78
2023/10/09 04:59:49;;;;;;;14.40;10.20;;;11.70;99.90;;;11.38;100.00;98299.22;4970434;28;20480;-77
2023/10/09 05:06:54;;;;;;;14.13;9.63;;;11.70;99.90;;;11.33;100.00;98297.16;5059872;28;20592;-77
2023/10/09 05:09:55;;;;;;;14.47;10.30;;;11.60;99.90;;;11.36;100.00;98290.50;5037535;28;20464;-77
2023/10/09 05:15:46;;;;;;;20.00;10.70;;;11.70;99.90;;;11.33;100.00;98303.41;4979074;28;20469;-75
2023/10/09 05:18:16;;;;;;;18.17;11.00;;;11.70;99.90;;;11.42;100.00;98301.28;4964026;28;20492;-77
2023/10/09 05:23:25;;;;;;;13.37;10.17;;;11.80;99.90;;;11.33;100.00;98307.97;4964424;28;20483;-78
2023/10/09 05:25:58;;;;;;;15.63;10.60;;;11.70;99.90;;;11.27;100.00;98304.25;4975966;28;20554;-75
2023/10/09 05:31:55;;;;;;;15.20;10.30;;;11.50;99.90;;;11.19;100.00;98320.72;5187694;27;20311;-76
2023/10/09 05:34:22;;;;;;;12.47;10.53;;;11.50;99.90;;;11.26;100.00;98315.28;5125375;27;20467;-76
2023/10/09 05:36:48;;;;;;;17.30;9.77;;;11.50;99.90;;;10.91;100.00;98273.16;5145216;27;20450;-74
2023/10/09 05:39:22;;;;;;;12.80;9.07;;;11.50;99.90;;;11.20;100.00;98330.50;5022917;28;1364993;-74
2023/10/09 05:41:52;;;;;;;12.50;9.63;;;11.50;99.90;;;11.30;100.00;98320.06;4975934;28;20822;-74
2023/10/09 05:47:35;;;;;;;14.77;10.07;;;11.70;99.90;;;11.48;100.00;98310.44;4989964;28;20548;-73
2023/10/09 06:04:11;;;;;;;15.13;10.90;;;12.20;99.90;;;11.99;100.00;98313.31;5075921;28;21011;-72
2023/10/09 06:06:44;;;;;;;16.10;10.77;;;12.20;99.90;;;12.08;100.00;98325.56;5074692;28;20476;-73
2023/10/09 06:14:57;;;;;;;14.07;10.23;;;12.40;99.90;;;12.01;100.00;98276.00;5065410;28;20518;-73
2023/10/09 06:17:27;;;;;;;19.70;11.63;;;12.60;99.90;;;12.44;100.00;98317.84;5051377;28;21079;-72
2023/10/09 06:19:59;;;;;;;12.97;9.83;;;12.70;99.90;;;12.84;100.00;98314.78;5078203;28;20604;-73
2023/10/09 06:25:12;;;;;;;15.40;9.80;;;13.00;98.20;;;13.04;97.96;98306.44;5079512;28;20948;-73
2023/10/09 06:27:59;;;;;;;15.83;11.00;;;13.30;97.50;;;13.13;95.08;98314.31;5071234;28;20481;-75
2023/10/09 06:30:28;;;;;;;24.13;10.00;;;13.50;94.90;;;13.04;94.51;98309.16;5046000;28;20543;-74
2023/10/09 06:36:08;;;;;;;20.27;10.70;;;13.60;94.10;;;13.51;92.32;98315.16;5054341;28;20450;-78
2023/10/09 06:38:51;;;;;;;13.20;9.83;;;13.70;93.70;;;13.41;92.04;98321.91;5074871;28;20941;-74
2023/10/09 06:41:34;;;;;;;11.83;9.50;;;13.70;93.20;;;13.02;91.95;98257.03;5064768;28;20468;-73
2023/10/09 06:44:05;;;;;;;15.00;9.73;;;13.70;93.10;;;13.71;89.85;98309.47;5070055;28;20445;-73
2023/10/09 06:46:43;;;;;;;16.57;9.73;;;13.90;92.60;;;13.91;90.20;98316.53;5063045;28;20463;-72
2023/10/09 06:49:33;;;;;;;14.10;8.60;;;14.00;92.60;;;13.95;88.08;98294.13;5066065;28;20756;-74
2023/10/09 06:52:15;;;;;;;15.80;9.23;;;14.20;91.70;;;14.00;87.72;98318.69;5074973;28;20772;-73
2023/10/09 06:54:49;;;;;;;17.00;9.60;;;14.30;91.60;;;14.14;87.85;98318.50;5070974;28;20484;-73
2023/10/09 06:57:43;;;;;;;14.87;9.57;;;14.40;91.40;;;14.21;86.08;98318.41;5070678;28;20447;-72
2023/10/09 07:03:05;;;;;;;14.37;9.27;;;14.60;90.70;;;14.51;84.90;98321.06;5070499;28;20495;-73
2023/10/09 07:05:48;;;;;;;13.70;8.50;;;14.80;90.60;;;14.53;85.93;98324.38;5056649;28;20858;-72
2023/10/09 07:08:31;;;;;;;22.53;9.37;;;14.90;90.50;;;14.84;83.37;98332.50;5054295;28;20522;-73
2023/10/09 07:11:20;;;;;;;18.67;8.40;;;15.00;90.40;;;14.94;83.40;98332.75;5051156;28;20448;-73
2023/10/09 07:13:54;;;;;;;16.03;9.60;;;15.10;90.40;;;14.83;83.04;98311.81;5071609;28;20554;-75
2023/10/09 07:16:28;;;;;;;15.70;9.33;;;15.20;90.30;;;15.09;82.42;98342.31;5059685;28;20456;-74
2023/10/09 07:19:09;;;;;;;16.03;8.73;;;15.20;90.10;;;15.13;81.84;98335.34;5053782;28;20476;-74
2023/10/09 07:21:38;;;;;;;13.97;8.40;;;15.30;89.90;;;15.01;81.05;98328.00;5058871;28;20460;-73
2023/10/09 07:24:17;;;;;;;15.73;9.10;;;15.40;89.20;;;15.22;80.23;98339.34;5061774;28;20441;-73
2023/10/09 07:26:52;;;;;;;14.00;7.90;;;15.50;88.80;;;15.28;80.79;98346.56;5064243;28;20548;-72
2023/10/09 07:29:22;;;;;;;12.03;8.20;;;15.60;89.00;;;15.56;80.00;98350.44;5057043;28;20813;-73
2023/10/09 07:31:58;;;;;;;14.53;8.60;;;15.80;88.80;;;15.18;80.29;98348.25;5041669;28;20488;-73
2023/10/09 07:34:31;;;;;;;15.40;8.97;;;15.70;88.20;;;15.20;80.28;98352.38;5062746;28;20482;-73
2023/10/09 07:37:03;;;;;;;10.13;7.57;;;15.60;88.00;;;15.34;79.83;98357.56;5058476;28;20452;-74
2023/10/09 07:39:35;;;;;;;12.80;8.00;;;15.70;88.20;;;15.72;78.84;98364.38;5067044;28;20619;-74
2023/10/09 07:44:52;;;;;;;13.17;8.40;;;16.00;87.90;;;16.24;75.56;98371.69;5061035;28;20467;-73
2023/10/09 07:47:33;;;;;;;13.20;8.30;;;16.40;87.00;;;16.47;74.31;98367.19;5043909;28;20730;-73
2023/10/09 07:50:01;;;;;;;14.27;8.10;;;16.70;86.50;;;16.70;73.22;98371.69;5063244;28;20589;-74
2023/10/09 07:52:29;;;;;;;12.00;5.57;;;16.90;85.60;;;17.29;68.40;98369.63;5063996;28;20932;-73
2023/10/09 07:55:03;;;;;;;16.70;6.20;;;17.30;83.30;;;17.58;66.41;98365.91;5054046;28;20475;-72
2023/10/09 07:57:39;;;;;;;9.07;5.57;;;17.60;82.00;;;17.37;66.26;98371.09;5052848;28;20813;-73
2023/10/09 08:00:36;;;;;;;12.00;6.00;;;17.80;80.70;;;17.89;65.15;98369.03;5062114;28;21004;-74
2023/10/09 08:03:23;;;;;;;11.60;5.90;;;18.00;80.60;;;18.22;63.96;98376.28;5064919;28;20457;-73
2023/10/09 08:05:52;;;;;;;11.73;6.00;;;18.30;79.90;;;18.59;62.88;98380.22;5054255;28;20459;-73
2023/10/09 08:13:56;;;;;;;9.50;5.53;;;18.80;77.90;;;18.45;62.12;98373.50;5050810;28;20462;-74
2023/10/09 08:16:24;;;;;;;15.60;4.87;;;18.70;77.40;;;18.19;62.71;98375.97;5061721;28;20449;-73
2023/10/09 08:18:52;;;;;;;12.63;4.60;;;18.50;77.50;;;18.37;62.25;98381.06;5060101;28;20493;-75
2023/10/09 08:21:41;;;;;;;12.93;6.37;;;18.60;77.30;;;18.93;61.13;98379.94;5062132;28;20471;-73
2023/10/09 08:24:35;;;;;;;13.70;5.97;;;18.80;77.30;;;18.98;60.80;98382.72;5047717;28;20458;-73
2023/10/09 08:27:37;;;;;;;9.90;5.80;;;19.00;77.00;;;19.63;58.05;98373.56;5060549;28;20454;-73
2023/10/09 08:29:47;;;;;;;16.90;5.30;;;19.40;75.60;;;19.48;58.95;98379.78;5066743;28;20556;-74
2023/10/09 08:32:38;;;;;;;10.83;4.73;;;19.60;75.50;;;19.90;57.23;98385.47;5037852;28;20512;-73
2023/10/09 08:35:29;;;;;;;13.67;4.70;;;19.80;74.50;;;20.26;56.47;98391.13;5060872;28;20590;-73
2023/10/09 08:37:58;;;;;;;13.40;5.50;;;20.20;74.00;;;20.29;55.38;98387.84;5042418;28;20445;-73
2023/10/09 08:40:33;;;;;;;9.30;5.20;;;20.30;72.70;;;20.52;55.23;98388.44;5062916;28;20444;-72
2023/10/09 08:43:09;;;;;;;9.87;5.20;;;20.50;73.00;;;20.02;55.85;98393.53;5043855;28;20828;-73
2023/10/09 08:45:40;;;;;;;13.17;4.90;;;20.30;71.80;;;19.87;56.65;98392.34;5059521;28;20448;-73
2023/10/09 08:48:15;;;;;;;22.43;6.27;;;20.10;72.20;;;20.05;56.58;98395.72;5053602;28;20455;-74
2023/10/09 08:50:45;;;;;;;11.70;4.47;;;20.10;72.80;;;20.00;55.86;98384.72;5060216;28;20469;-73
2023/10/09 08:53:13;;;;;;;7.63;4.40;;;20.20;72.00;;;20.22;55.94;98407.31;5056242;28;20468;-73
2023/10/09 08:55:42;;;;;;;10.70;4.30;;;20.20;72.20;;;19.76;56.86;98399.66;5066021;28;20480;-73
2023/10/09 08:58:18;;;;;;;9.50;5.27;;;20.10;71.90;;;19.97;56.53;98399.81;5061454;28;20481;-73
2023/10/09 09:00:45;;;;;;;6.40;4.83;;;20.10;72.20;;;19.88;56.72;98361.09;5054886;28;20452;-73
2023/10/09 09:03:16;;;;;;;13.70;5.70;;;20.20;72.50;;;20.48;55.79;98401.06;5046567;28;20527;-73
2023/10/09 09:05:49;;;;;;;11.00;4.90;;;20.40;72.10;;;20.48;55.42;98390.06;5045746;28;20478;-72
2023/10/09 09:08:25;;;;;;;9.70;4.60;;;20.50;71.80;;;21.05;54.32;98395.66;5071419;28;20565;-73
2023/10/09 09:11:11;;;;;;;10.03;4.17;;;20.90;71.50;;;21.49;52.99;98386.78;5060194;28;20587;-74
2023/10/09 09:13:41;;;;;;;11.83;3.90;;;21.40;70.90;;;21.62;52.70;98368.88;5060880;28;20464;-73
2023/10/09 09:16:16;;;;;;;7.47;3.87;;;21.60;70.60;;;22.02;51.17;98385.53;5059977;28;20597;-73
2023/10/09 09:19:03;;;;;;;14.83;5.70;;;21.90;69.30;;;21.41;52.00;98383.78;5052703;28;20502;-73
2023/10/09 09:21:38;;;;;;;11.83;4.30;;;21.80;68.50;;;20.95;53.59;98397.28;5053978;28;20473;-71
2023/10/09 09:24:15;;;;;;;6.87;3.87;;;21.30;69.50;;;20.85;53.88;98400.03;5064038;28;20972;-73
2023/10/09 09:26:47;;;;;;;8.23;3.77;;;21.00;69.20;;;21.15;53.22;98416.78;5060995;28;20460;-74
2023/10/09 09:29:17;;;;;;;7.53;3.70;;;21.10;69.20;;;21.04;53.39;98391.25;5057747;28;20453;-73
2023/10/09 09:31:54;;;;;;;10.40;4.77;;;21.10;69.20;;;20.63;55.05;98403.00;5040824;28;20453;-73
2023/10/09 09:34:25;;;;;;;10.23;4.10;;;20.90;69.90;;;20.21;55.72;98386.44;5038924;28;20471;-74
2023/10/09 09:36:56;;;;;;;9.90;4.57;;;20.70;70.50;;;20.31;57.16;98424.06;5053534;28;20455;-74
2023/10/09 09:39:29;;;;;;;8.40;4.67;;;20.50;71.20;;;20.07;60.00;98405.31;5057239;28;20514;-73
2023/10/09 09:42:03;;;;;;;9.33;3.87;;;20.30;73.00;;;20.18;62.80;98421.81;5049798;28;20443;-72
2023/10/09 09:44:33;;;;;;;7.07;4.10;;;20.20;75.80;;;20.17;60.97;98420.16;5057919;28;20460;-73
2023/10/09 09:47:03;;;;;;;9.40;3.83;;;20.20;75.10;;;19.94;62.13;98397.56;5057204;28;20521;-73
2023/10/09 09:49:32;;;;;;;7.93;4.40;;;20.10;75.50;;;19.90;62.66;98419.22;5041522;28;20463;-74
2023/10/09 09:52:09;;;;;;;11.13;4.57;;;20.00;75.70;;;20.01;62.05;98425.59;5039496;28;20561;-73
2023/10/09 09:54:38;;;;;;;9.83;5.03;;;20.00;75.70;;;20.08;62.35;98420.66;5053841;28;20477;-72
2023/10/09 09:57:10;;;;;;;11.47;4.57;;;20.10;76.20;;;20.00;64.95;98418.47;5055467;28;20467;-73
2023/10/09 09:59:49;;;;;;;14.60;4.50;;;20.10;77.80;;;20.07;65.44;98415.47;5059956;28;20459;-74
2023/10/09 10:02:24;;;;;;;12.93;5.10;;;20.10;78.50;;;20.06;65.92;98422.06;5039268;28;20488;-73
2023/10/09 10:04:58;;;;;;;12.37;5.07;;;20.10;79.10;;;20.25;65.35;98436.13;5056899;28;20452;-73
2023/10/09 10:07:30;;;;;;;8.77;4.40;;;20.20;79.40;;;20.40;63.95;98424.34;5051286;28;20464;-73
2023/10/09 10:09:58;;;;;;;11.73;5.50;;;20.40;78.30;;;20.28;63.29;98429.25;5046323;28;20726;-73
2023/10/09 10:13:00;;;;;;;12.20;5.23;;;20.30;77.70;;;20.38;66.27;98429.28;5053968;28;20548;-71
2023/10/09 10:16:19;;;;;;;8.77;4.97;;;20.40;79.60;;;20.49;66.75;98430.13;5036827;28;20474;-73
2023/10/09 10:18:59;;;;;;;6.20;4.20;;;20.40;80.50;;;20.59;68.01;98419.19;5038741;28;20452;-73
2023/10/09 10:21:38;;;;;;;11.70;5.20;;;20.50;81.60;;;20.83;65.18;98424.19;5056588;28;20453;-73
2023/10/09 10:24:52;;;;;;;10.77;4.40;;;20.70;79.80;;;21.01;62.99;98433.00;5035301;28;20513;-72
2023/10/09 10:27:26;;;;;;;10.10;5.20;;;20.80;79.30;;;20.88;65.91;98421.47;5053971;28;20440;-73
2023/10/09 10:30:36;;;;;;;7.10;4.83;;;20.90;80.30;;;20.68;68.70;98416.72;5062132;28;20459;-73
2023/10/09 10:33:15;;;;;;;12.37;5.30;;;20.70;82.00;;;20.77;66.90;98419.75;5054427;28;20432;-71
2023/10/09 10:35:46;;;;;;;9.23;5.70;;;20.80;81.40;;;20.70;65.09;98403.56;5051414;28;20473;-74
2023/10/09 10:38:34;;;;;;;10.90;5.80;;;20.80;80.90;;;20.17;65.58;98404.56;5053682;28;21033;-72
2023/10/09 10:41:22;;;;;;;11.43;5.20;;;20.50;79.30;;;20.74;63.96;98398.34;5056677;28;20485;-73
2023/10/09 10:43:59;;;;;;;11.63;5.53;;;20.70;79.60;;;21.18;63.62;98407.97;5043954;28;20512;-72
2023/10/09 10:46:37;;;;;;;9.20;5.20;;;21.00;79.90;;;21.58;62.10;98394.44;5056919;28;20459;-72
2023/10/09 10:49:20;;;;;;;16.37;6.03;;;21.30;79.10;;;21.52;60.40;98394.47;5052579;28;20541;-71
2023/10/09 10:51:49;;;;;;;12.40;4.77;;;21.40;77.80;;;21.51;60.79;98378.25;5059617;28;20440;-73
2023/10/09 10:57:29;;;;;;;12.53;4.60;;;21.50;78.00;;;21.12;60.93;98384.38;5047580;28;20445;-75
2023/10/09 11:00:12;;;;;;;11.90;5.03;;;21.40;76.90;;;20.68;61.75;98370.06;5060191;28;20961;-75
2023/10/09 11:02:43;;;;;;;8.10;4.53;;;21.00;76.60;;;20.72;61.65;98364.88;5060436;28;20465;-74
2023/10/09 11:05:23;;;;;;;16.53;5.70;;;20.90;76.70;;;20.14;62.94;98365.84;5059534;28;20457;-75
2023/10/09 11:07:56;;;;;;;14.33;4.87;;;20.50;76.70;;;19.84;64.12;98361.88;5063546;28;20783;-74
2023/10/09 11:10:28;;;;;;;9.57;4.43;;;20.20;77.50;;;20.04;62.85;98348.28;5059502;28;20538;-74
2023/10/09 11:15:45;;;;;;;9.43;5.30;;;20.60;76.20;;;20.77;60.08;98353.88;5044582;28;20511;-73
2023/10/09 11:18:19;;;;;;;11.60;4.70;;;20.80;76.20;;;20.43;59.59;98316.00;5059316;28;20457;-74
2023/10/09 11:21:22;;;;;;;15.60;4.97;;;20.80;75.60;;;20.97;58.46;98308.31;5045315;28;20545;-74
2023/10/09 11:24:23;;;;;;;14.97;4.57;;;21.00;75.10;;;21.06;58.15;98356.09;5064018;28;20453;-74
2023/10/09 11:26:55;;;;;;;12.47;5.43;;;21.10;74.50;;;21.11;57.30;98364.31;5046362;28;20512;-73
2023/10/09 11:29:29;;;;;;;14.57;4.20;;;21.20;73.80;;;21.00;57.80;98365.41;5063672;28;20433;-72
2023/10/09 11:32:05;;;;;;;12.73;4.20;;;21.10;73.80;;;20.98;57.68;98364.88;5050531;28;20532;-71
2023/10/09 11:34:34;;;;;;;14.43;4.57;;;21.20;73.70;;;20.90;57.11;98369.84;5060745;28;20444;-72
2023/10/09 11:37:04;;;;;;;11.23;3.70;;;21.10;73.20;;;20.77;58.06;98386.81;5061438;28;20483;-73
2023/10/09 11:39:34;;;;;;;9.60;3.80;;;20.90;73.50;;;20.64;57.93;98405.47;5049669;28;20685;-73
2023/10/09 11:42:05;;;;;;;13.73;4.13;;;20.80;73.30;;;20.47;58.07;98405.72;5063799;28;20805;-73
2023/10/09 11:44:39;;;;;;;7.23;3.93;;;20.70;73.10;;;20.61;57.47;98394.19;5060769;28;20454;-72
2023/10/09 11:47:32;;;;;;;12.70;4.83;;;20.70;73.10;;;20.79;58.05;98370.88;5061562;28;20466;-72
2023/10/09 11:50:13;;;;;;;16.90;4.97;;;20.80;73.60;;;20.92;57.14;98361.31;5045885;28;20450;-71
2023/10/09 11:53:09;;;;;;;17.20;4.60;;;20.90;73.00;;;21.09;56.58;98372.00;5058964;28;20481;-73
2023/10/09 11:55:36;;;;;;;10.77;4.50;;;21.20;73.00;;;21.14;55.88;98357.44;5046774;28;20559;-74
2023/10/09 11:58:06;;;;;;;10.57;4.77;;;21.30;72.10;;;21.26;56.12;98392.88;5064374;28;20469;-72
2023/10/09 12:00:46;;;;;;;11.50;4.63;;;21.40;72.40;;;20.82;57.21;98417.03;5044016;28;20998;-73
2023/10/09 12:03:14;;;;;;;18.30;4.73;;;21.10;72.30;;;20.34;58.37;98429.00;5062229;28;20451;-74
2023/10/09 12:05:44;;;;;;;11.60;5.13;;;20.70;72.60;;;19.74;59.21;98388.16;5061900;28;20518;-72
2023/10/09 12:08:15;;;;;;;9.20;4.33;;;20.30;72.90;;;19.70;61.10;98460.19;5063244;28;20477;-73
2023/10/09 12:10:43;;;;;;;15.40;4.53;;;20.00;73.80;;;19.68;61.10;98458.56;5064300;28;20469;-74
2023/10/09 12:13:11;;;;;;;9.20;4.50;;;19.90;74.10;;;19.54;62.06;98458.22;5059185;28;20967;-74
2023/10/09 12:15:41;;;;;;;11.67;4.20;;;19.70;74.70;;;19.44;61.91;98471.81;5062158;28;20508;-72
2023/10/09 12:18:14;;;;;;;13.03;4.27;;;19.60;74.60;;;19.43;62.09;98469.38;5060226;28;20509;-74
2023/10/09 12:20:49;;;;;;;15.37;5.17;;;19.60;74.60;;;19.51;62.64;98450.53;5063722;28;20830;-72
2023/10/09 12:23:17;;;;;;;10.33;4.63;;;19.60;75.20;;;19.90;61.70;98434.81;5033764;28;20923;-73
2023/10/09 12:25:45;;;;;;;9.10;5.40;;;19.80;75.30;;;19.88;64.31;98415.09;5045877;28;20937;-73
2023/10/09 12:28:13;;;;;;;9.50;4.47;;;20.00;76.80;;;19.77;64.17;98375.84;5050035;28;20449;-73
2023/10/09 12:30:42;;;;;;;10.80;4.97;;;20.00;76.90;;;19.95;63.85;98349.91;5062415;28;20455;-74
2023/10/09 12:33:12;;;;;;;13.00;4.90;;;20.10;77.20;;;20.21;62.74;98325.28;5060158;28;20447;-74
2023/10/09 12:35:40;;;;;;;11.10;4.80;;;20.30;76.40;;;20.29;62.98;98294.56;5065006;28;20477;-74
2023/10/09 12:38:09;;;;;;;11.97;4.90;;;20.40;76.90;;;20.30;63.90;98281.66;5061185;28;20458;-73
2023/10/09 12:40:39;;;;;;;15.43;6.17;;;20.50;77.10;;;20.37;62.85;98272.06;5044592;28;20448;-72
2023/10/09 12:43:15;;;;;;;11.47;5.10;;;20.60;76.50;;;20.74;61.28;98278.38;5065798;28;20455;-74
2023/10/09 12:45:45;;;;;;;12.07;5.17;;;20.80;76.20;;;21.17;59.58;98272.56;5061117;28;20934;-74
2023/10/09 12:48:14;;;;;;;9.43;4.90;;;20.90;75.60;;;21.21;59.13;98262.66;5041129;28;20820;-74
2023/10/09 12:50:44;;;;;;;26.73;5.23;;;21.20;75.10;;;21.30;57.17;98253.81;5042534;28;20457;-73
2023/10/09 12:53:17;;;;;;;12.40;5.90;;;21.30;73.70;;;20.99;57.80;98254.75;5059400;28;20939;-74
2023/10/09 12:55:45;;;;;;;14.80;4.80;;;21.30;73.10;;;21.26;57.14;98255.50;5051944;28;20471;-73
2023/10/09 12:58:15;;;;;;;10.53;4.87;;;21.30;73.30;;;20.90;56.34;98239.94;5043448;28;20475;-73
2023/10/09 13:00:48;;;;;;;13.80;4.77;;;21.20;71.80;;;20.83;57.34;98245.72;5045037;28;20929;-73
2023/10/09 13:03:21;;;;;;;18.17;5.00;;;21.00;72.70;;;20.74;57.86;98228.97;5057206;28;20453;-74
2023/10/09 13:05:54;;;;;;;10.60;4.13;;;20.90;72.80;;;20.78;56.37;98223.75;5065028;28;20460;-74
2023/10/09 13:08:24;;;;;;;13.37;4.73;;;20.80;71.80;;;20.95;56.39;98229.78;5066490;28;20959;-74
2023/10/09 13:10:59;;;;;;;15.80;5.50;;;20.90;72.00;;;20.16;57.29;98223.78;5061623;28;20476;-73
2023/10/09 13:13:39;;;;;;;12.43;5.43;;;20.60;71.20;;;20.06;58.36;98181.53;5040869;28;20891;-72
2023/10/09 13:16:11;;;;;;;13.40;4.63;;;20.50;72.50;;;20.25;57.98;98222.16;5057958;28;20479;-73
2023/10/09 13:18:41;;;;;;;13.83;5.10;;;20.40;72.10;;;20.50;57.65;98220.47;5054663;28;20473;-74
2023/10/09 13:21:08;;;;;;;13.80;7.47;;;20.50;72.40;;;20.69;57.38;98226.22;5056059;28;20477;-73
2023/10/09 13:23:46;;;;;;;8.40;4.90;;;20.60;72.40;;;20.78;55.46;98212.75;5037733;28;20502;-73
2023/10/09 13:26:23;;;;;;;12.27;4.20;;;20.90;71.40;;;20.62;55.25;98214.69;5051351;28;20465;-73
2023/10/09 13:28:52;;;;;;;13.80;4.80;;;20.70;70.40;;;20.33;55.44;98213.38;5054290;28;20510;-72
2023/10/09 13:31:25;;;;;;;10.47;4.20;;;20.60;69.90;;;20.70;54.34;98202.34;5055366;28;20467;-73